Time;durP1;ratioP1;P1;durP2;ratioP2;P2;SDS_P1;SDS_P2;PMS_P1;PMS_P2;Temp;Humidity;BMP_temperature;BMP_pressure;BME280_temperature;BME280_humidity;BME280_pressure;Samples;Min_cycle;Max_cycle;Signal;HPM_P1;HPM_P2
2023/12/20 00:01:28;;;;;;;33.70;19.43;;;;;;;;;;5037783;28;20442;-59
2023/12/20 00:03:56;;;;;;;35.83;20.20;;;;;;;;;;5037615;28;20461;-59
2023/12/20 00:06:24;;;;;;;32.23;19.23;;;;;;;;;;5037500;28;20478;-59
2023/12/20 00:08:54;;;;;;;30.67;18.43;;;;;;;;;;5038062;28;20438;-59
2023/12/20 00:11:22;;;;;;;32.37;19.43;;;;;;;;;;5037494;28;20446;-59
2023/12/20 00:13:50;;;;;;;33.50;19.33;;;;;;;;;;5037544;28;20489;-59
2023/12/20 00:16:19;;;;;;;36.50;18.00;;;;;;;;;;5037444;28;20832;-59
2023/12/20 00:18:47;;;;;;;37.13;19.73;;;;;;;;;;5037811;28;20446;-59
2023/12/20 00:21:15;;;;;;;34.07;18.00;;;;;;;;;;5034898;28;20438;-59
2023/12/20 00:23:43;;;;;;;36.23;18.33;;;;;;;;;;5037514;28;20469;-59
2023/12/20 00:26:13;;;;;;;32.40;18.40;;;;;;;;;;5037702;28;20442;-59
2023/12/20 00:28:42;;;;;;;33.83;19.43;;;;;;;;;;5037374;28;20442;-59
2023/12/20 00:31:10;;;;;;;30.23;18.53;;;;;;;;;;5037364;28;20809;-59
2023/12/20 00:33:39;;;;;;;37.37;19.37;;;;;;;;;;5037414;28;20562;-59
2023/12/20 00:36:08;;;;;;;35.90;20.20;;;;;;;;;;5026932;28;20584;-59
2023/12/20 00:38:36;;;;;;;35.47;20.37;;;;;;;;;;5037555;28;20500;-59
2023/12/20 00:41:04;;;;;;;32.40;18.17;;;;;;;;;;5037211;28;20937;-59
2023/12/20 00:43:34;;;;;;;35.63;19.63;;;;;;;;;;5036757;28;20545;-59
2023/12/20 00:46:02;;;;;;;36.07;18.57;;;;;;;;;;5037191;28;20956;-59
2023/12/20 00:48:31;;;;;;;31.67;17.97;;;;;;;;;;5036909;28;20446;-59
2023/12/20 00:50:59;;;;;;;36.23;17.67;;;;;;;;;;5037303;28;20438;-59
2023/12/20 00:53:27;;;;;;;29.47;17.97;;;;;;;;;;5036537;28;20486;-59
2023/12/20 00:55:55;;;;;;;35.00;18.40;;;;;;;;;;5036840;28;20533;-59
2023/12/20 00:58:23;;;;;;;29.73;17.13;;;;;;;;;;5030227;28;20912;-59
2023/12/20 01:00:53;;;;;;;33.57;18.90;;;;;;;;;;5037117;28;20438;-59
2023/12/20 01:03:22;;;;;;;32.23;17.77;;;;;;;;;;5036843;28;20489;-59
2023/12/20 01:05:50;;;;;;;31.07;18.63;;;;;;;;;;5036560;28;20524;-60
2023/12/20 01:08:18;;;;;;;32.60;18.20;;;;;;;;;;5036845;28;20446;-59
2023/12/20 01:10:46;;;;;;;30.03;16.97;;;;;;;;;;5036949;28;20439;-59
2023/12/20 01:13:15;;;;;;;32.47;17.03;;;;;;;;;;5035321;28;20518;-59
2023/12/20 01:15:43;;;;;;;28.07;15.57;;;;;;;;;;5041002;28;20484;-59
2023/12/20 01:18:13;;;;;;;28.37;16.53;;;;;;;;;;5040953;28;20464;-59
2023/12/20 01:20:41;;;;;;;27.27;16.17;;;;;;;;;;5040754;28;20442;-59
2023/12/20 01:23:09;;;;;;;27.60;15.93;;;;;;;;;;5040687;28;20493;-59
2023/12/20 01:25:37;;;;;;;25.63;16.13;;;;;;;;;;5040902;28;20438;-59
2023/12/20 01:28:05;;;;;;;33.00;16.70;;;;;;;;;;5040675;28;20516;-59
2023/12/20 01:30:34;;;;;;;30.13;16.37;;;;;;;;;;5040610;28;20444;-59
2023/12/20 01:33:02;;;;;;;28.87;16.10;;;;;;;;;;5040458;28;20565;-59
2023/12/20 01:35:32;;;;;;;27.57;16.77;;;;;;;;;;5040545;28;20445;-59
2023/12/20 01:38:00;;;;;;;23.20;14.67;;;;;;;;;;5040208;28;20450;-59
2023/12/20 01:40:28;;;;;;;30.10;16.07;;;;;;;;;;5040866;28;20442;-59
2023/12/20 01:42:59;;;;;;;25.00;15.90;;;;;;;;;;5039864;28;20500;-59
2023/12/20 01:45:27;;;;;;;27.27;14.90;;;;;;;;;;5040612;28;20446;-59
2023/12/20 01:47:56;;;;;;;26.87;16.20;;;;;;;;;;5040470;28;20450;-59
2023/12/20 01:50:24;;;;;;;28.83;15.10;;;;;;;;;;5040508;28;20438;-59
2023/12/20 01:52:57;;;;;;;26.70;15.00;;;;;;;;;;5040038;28;20996;-59
2023/12/20 01:55:26;;;;;;;23.00;15.40;;;;;;;;;;5040489;28;20492;-59
2023/12/20 01:57:54;;;;;;;26.67;16.03;;;;;;;;;;5039793;28;20852;-59
2023/12/20 02:00:23;;;;;;;29.27;16.37;;;;;;;;;;5040092;28;20876;-59
2023/12/20 02:02:52;;;;;;;27.43;14.37;;;;;;;;;;5040026;28;20442;-59
2023/12/20 02:05:20;;;;;;;26.63;15.03;;;;;;;;;;5039498;28;20470;-59
2023/12/20 02:07:48;;;;;;;24.53;14.17;;;;;;;;;;5040067;28;20449;-59
2023/12/20 02:10:19;;;;;;;29.97;15.03;;;;;;;;;;5039916;28;20525;-59
2023/12/20 02:12:47;;;;;;;27.80;15.43;;;;;;;;;;5039637;28;20442;-59
2023/12/20 02:15:15;;;;;;;23.83;15.23;;;;;;;;;;5039607;28;20528;-59
2023/12/20 02:17:44;;;;;;;25.33;14.77;;;;;;;;;;5039737;28;20442;-59
2023/12/20 02:20:12;;;;;;;24.87;14.87;;;;;;;;;;5039495;28;20470;-59
2023/12/20 02:22:42;;;;;;;22.50;13.93;;;;;;;;;;5039058;28;20438;-59
2023/12/20 02:25:10;;;;;;;25.20;14.63;;;;;;;;;;5039669;28;20439;-59
2023/12/20 02:27:39;;;;;;;26.30;14.83;;;;;;;;;;5039690;28;20450;-60
2023/12/20 02:30:08;;;;;;;25.80;14.67;;;;;;;;;;5039577;28;20465;-59
2023/12/20 02:32:36;;;;;;;25.23;14.83;;;;;;;;;;5039512;28;20449;-60
2023/12/20 02:35:04;;;;;;;22.13;14.23;;;;;;;;;;5036992;28;20980;-59
2023/12/20 02:37:33;;;;;;;24.17;14.13;;;;;;;;;;5032685;28;20458;-59
2023/12/20 02:40:04;;;;;;;25.80;14.70;;;;;;;;;;5038479;28;20454;-59
2023/12/20 02:42:32;;;;;;;26.00;15.33;;;;;;;;;;5039738;28;20935;-59
2023/12/20 02:45:00;;;;;;;21.37;13.93;;;;;;;;;;5039132;28;20465;-59
2023/12/20 02:47:29;;;;;;;22.57;14.80;;;;;;;;;;5039552;28;20438;-59
2023/12/20 02:49:57;;;;;;;23.47;13.77;;;;;;;;;;5038944;28;20586;-59
2023/12/20 02:52:26;;;;;;;21.20;13.87;;;;;;;;;;5039599;28;20442;-59
2023/12/20 02:54:54;;;;;;;25.00;15.00;;;;;;;;;;5038821;28;20485;-59
2023/12/20 02:57:24;;;;;;;23.97;15.70;;;;;;;;;;5039318;28;20453;-59
2023/12/20 02:59:52;;;;;;;23.40;15.47;;;;;;;;;;5026225;28;20533;-60
2023/12/20 03:02:20;;;;;;;25.63;14.77;;;;;;;;;;5039020;28;20450;-59
2023/12/20 03:04:48;;;;;;;22.10;13.33;;;;;;;;;;5039278;28;20469;-59
2023/12/20 03:07:16;;;;;;;20.60;13.00;;;;;;;;;;5038425;28;20478;-59
2023/12/20 03:09:45;;;;;;;29.00;13.37;;;;;;;;;;5039202;28;20477;-59
2023/12/20 03:12:34;;;;;;;29.00;14.63;;;;;;;;;;5038625;28;20434;-59
2023/12/20 03:15:03;;;;;;;26.77;15.10;;;;;;;;;;5038783;28;20482;-59
2023/12/20 03:17:31;;;;;;;21.20;13.57;;;;;;;;;;5038642;28;20462;-59
2023/12/20 03:19:59;;;;;;;22.47;14.70;;;;;;;;;;5038595;28;20544;-59
2023/12/20 03:22:27;;;;;;;25.53;15.50;;;;;;;;;;5038550;28;20438;-59
2023/12/20 03:24:55;;;;;;;21.67;15.30;;;;;;;;;;5038669;28;20462;-59
2023/12/20 03:27:23;;;;;;;25.97;15.97;;;;;;;;;;5038591;28;20469;-59
2023/12/20 03:29:53;;;;;;;26.03;15.73;;;;;;;;;;5038126;28;20557;-59
2023/12/20 03:32:21;;;;;;;22.97;14.93;;;;;;;;;;5038650;28;20446;-59
2023/12/20 03:34:49;;;;;;;26.80;15.30;;;;;;;;;;5037107;28;20488;-59
2023/12/20 03:37:18;;;;;;;20.70;13.67;;;;;;;;;;5038409;28;20945;-59
2023/12/20 03:39:46;;;;;;;26.60;15.00;;;;;;;;;;5038337;28;20452;-59
2023/12/20 03:42:14;;;;;;;22.80;14.73;;;;;;;;;;5038315;28;20944;-59
2023/12/20 03:44:42;;;;;;;24.90;14.80;;;;;;;;;;5038026;28;20520;-59
2023/12/20 03:47:12;;;;;;;26.23;15.50;;;;;;;;;;5038411;28;20447;-59
2023/12/20 03:49:40;;;;;;;24.90;15.20;;;;;;;;;;5038090;28;20454;-59
2023/12/20 03:52:08;;;;;;;23.30;14.73;;;;;;;;;;5038255;28;20489;-59
2023/12/20 03:54:36;;;;;;;25.67;14.30;;;;;;;;;;5037737;28;20482;-59
2023/12/20 03:57:05;;;;;;;26.33;15.87;;;;;;;;;;5038279;28;20438;-59
2023/12/20 03:59:35;;;;;;;25.30;15.77;;;;;;;;;;5037638;28;20442;-59
2023/12/20 04:02:04;;;;;;;23.67;15.03;;;;;;;;;;5038179;28;20446;-59
2023/12/20 04:04:33;;;;;;;25.17;16.27;;;;;;;;;;5037586;28;20459;-59
2023/12/20 04:07:01;;;;;;;26.87;15.37;;;;;;;;;;5037398;28;20878;-59
2023/12/20 04:09:30;;;;;;;28.67;16.23;;;;;;;;;;5037927;28;20538;-59
2023/12/20 04:11:58;;;;;;;24.00;15.07;;;;;;;;;;5037740;28;20442;-59
2023/12/20 04:14:26;;;;;;;26.90;15.53;;;;;;;;;;5037562;28;20549;-59
2023/12/20 04:16:54;;;;;;;24.97;15.93;;;;;;;;;;5037612;28;20449;-59
2023/12/20 04:19:23;;;;;;;26.20;16.03;;;;;;;;;;5037899;28;20518;-59
2023/12/20 04:21:52;;;;;;;25.00;15.43;;;;;;;;;;5037383;28;20446;-59
2023/12/20 04:24:20;;;;;;;23.23;14.93;;;;;;;;;;5037552;28;20497;-59
2023/12/20 04:26:49;;;;;;;25.73;15.70;;;;;;;;;;5037162;28;20438;-60
2023/12/20 04:29:17;;;;;;;25.43;14.70;;;;;;;;;;5037405;28;20878;-59
2023/12/20 04:31:45;;;;;;;27.30;16.47;;;;;;;;;;5037161;28;20972;-59
2023/12/20 04:34:13;;;;;;;26.47;15.03;;;;;;;;;;5037157;28;20573;-59
2023/12/20 04:36:42;;;;;;;24.33;14.13;;;;;;;;;;5035631;28;20486;-59
2023/12/20 04:39:12;;;;;;;25.57;16.43;;;;;;;;;;5035872;28;20528;-59
2023/12/20 04:41:40;;;;;;;23.50;15.60;;;;;;;;;;5037590;28;20450;-59
2023/12/20 04:44:08;;;;;;;29.50;16.20;;;;;;;;;;5037184;28;20466;-59
2023/12/20 04:46:36;;;;;;;28.90;17.17;;;;;;;;;;5037337;28;20458;-59
2023/12/20 04:49:04;;;;;;;29.07;16.90;;;;;;;;;;5037168;28;20925;-60
2023/12/20 04:51:34;;;;;;;29.07;17.40;;;;;;;;;;5037087;28;20434;-59
2023/12/20 04:54:02;;;;;;;28.67;17.33;;;;;;;;;;5037063;28;20996;-59
2023/12/20 04:56:32;;;;;;;27.77;16.90;;;;;;;;;;5029690;28;20219;-59
2023/12/20 04:59:00;;;;;;;31.90;17.17;;;;;;;;;;5036897;28;20442;-60
2023/12/20 05:01:28;;;;;;;26.00;16.47;;;;;;;;;;5037454;28;20465;-59
2023/12/20 05:04:00;;;;;;;25.57;16.83;;;;;;;;;;5032803;28;20467;-59
2023/12/20 05:06:29;;;;;;;24.23;15.27;;;;;;;;;;5030988;28;20305;-59
2023/12/20 05:08:57;;;;;;;23.40;14.90;;;;;;;;;;5036989;28;20446;-59
2023/12/20 05:11:26;;;;;;;21.03;14.23;;;;;;;;;;5036869;28;20929;-59
2023/12/20 05:13:56;;;;;;;27.00;16.20;;;;;;;;;;5037002;28;20462;-59
2023/12/20 05:16:24;;;;;;;23.00;14.70;;;;;;;;;;5036685;28;20569;-59
2023/12/20 05:18:53;;;;;;;25.57;16.47;;;;;;;;;;5037260;28;20446;-59
2023/12/20 05:21:21;;;;;;;25.00;15.80;;;;;;;;;;5036791;28;20447;-60
2023/12/20 05:23:50;;;;;;;27.47;17.13;;;;;;;;;;5036688;28;20462;-59
2023/12/20 05:26:18;;;;;;;23.80;15.23;;;;;;;;;;5036860;28;20449;-59
2023/12/20 05:28:46;;;;;;;27.37;16.17;;;;;;;;;;5033800;28;20506;-59
2023/12/20 05:31:16;;;;;;;25.77;15.63;;;;;;;;;;5037104;28;20454;-59
2023/12/20 05:33:44;;;;;;;21.93;15.10;;;;;;;;;;5034791;28;20467;-59
2023/12/20 05:36:14;;;;;;;25.10;14.93;;;;;;;;;;5036693;28;20543;-59
2023/12/20 05:38:43;;;;;;;25.63;15.33;;;;;;;;;;5025314;28;20473;-60
2023/12/20 05:41:11;;;;;;;25.23;15.23;;;;;;;;;;5036099;28;20438;-60
2023/12/20 05:43:40;;;;;;;23.23;15.03;;;;;;;;;;5035010;28;20470;-60
2023/12/20 05:46:08;;;;;;;22.73;14.37;;;;;;;;;;5036680;28;20441;-60
2023/12/20 05:48:37;;;;;;;21.03;14.77;;;;;;;;;;5036770;28;20489;-60
2023/12/20 05:51:06;;;;;;;23.33;14.53;;;;;;;;;;5034079;28;20482;-60
2023/12/20 05:53:34;;;;;;;22.47;13.73;;;;;;;;;;5036259;28;20454;-60
2023/12/20 05:56:03;;;;;;;26.30;14.40;;;;;;;;;;5036398;28;20505;-60
2023/12/20 05:58:31;;;;;;;23.90;14.77;;;;;;;;;;5037880;28;20521;-60
2023/12/20 06:00:59;;;;;;;19.90;12.87;;;;;;;;;;5040371;28;20442;-60
2023/12/20 06:03:27;;;;;;;21.03;14.07;;;;;;;;;;5039946;28;20464;-60
2023/12/20 06:05:57;;;;;;;20.97;13.80;;;;;;;;;;5039600;28;21015;-60
2023/12/20 06:08:43;;;;;;;21.60;13.60;;;;;;;;;;5031344;28;20507;-60
2023/12/20 06:11:12;;;;;;;21.63;13.53;;;;;;;;;;5039534;28;20438;-60
2023/12/20 06:13:40;;;;;;;20.07;13.20;;;;;;;;;;5036985;28;20464;-60
2023/12/20 06:16:09;;;;;;;21.40;13.70;;;;;;;;;;5037423;28;20557;-60
2023/12/20 06:18:37;;;;;;;22.20;13.97;;;;;;;;;;5039907;28;20439;-60
2023/12/20 06:21:08;;;;;;;23.07;13.70;;;;;;;;;;5039751;28;20446;-60
2023/12/20 06:23:36;;;;;;;22.63;14.03;;;;;;;;;;5039396;28;20462;-60
2023/12/20 06:26:04;;;;;;;22.27;13.47;;;;;;;;;;5039325;28;21035;-60
2023/12/20 06:28:33;;;;;;;18.03;12.73;;;;;;;;;;5039388;28;20446;-60
2023/12/20 06:31:01;;;;;;;19.93;13.10;;;;;;;;;;5039252;28;20869;-60
2023/12/20 06:33:30;;;;;;;21.30;14.33;;;;;;;;;;5039092;28;20460;-60
2023/12/20 06:35:58;;;;;;;21.40;14.13;;;;;;;;;;5039356;28;20478;-60
2023/12/20 06:38:28;;;;;;;22.60;13.07;;;;;;;;;;5039328;28;20441;-60
2023/12/20 06:40:57;;;;;;;25.03;13.93;;;;;;;;;;5039406;28;20450;-60
2023/12/20 06:43:25;;;;;;;23.00;14.37;;;;;;;;;;5038755;28;20454;-60
2023/12/20 06:46:14;;;;;;;20.73;13.20;;;;;;;;;;5039071;28;20462;-60
2023/12/20 06:48:42;;;;;;;20.40;13.53;;;;;;;;;;5039275;28;20450;-60
2023/12/20 06:51:14;;;;;;;23.60;14.00;;;;;;;;;;5038720;28;20492;-60
2023/12/20 06:53:43;;;;;;;20.73;14.37;;;;;;;;;;5038443;28;20479;-60
2023/12/20 06:56:12;;;;;;;20.50;13.30;;;;;;;;;;5037481;28;20478;-59
2023/12/20 06:58:45;;;;;;;21.77;14.20;;;;;;;;;;5037246;28;20929;-60
2023/12/20 07:01:13;;;;;;;23.00;14.30;;;;;;;;;;5038597;28;20799;-60
2023/12/20 07:03:42;;;;;;;18.93;12.87;;;;;;;;;;5039225;28;20465;-60
2023/12/20 07:06:10;;;;;;;20.93;13.20;;;;;;;;;;5032958;28;20490;-60
2023/12/20 07:08:38;;;;;;;19.53;13.17;;;;;;;;;;5038924;28;20442;-60
2023/12/20 07:11:08;;;;;;;21.63;14.63;;;;;;;;;;5038952;28;20443;-60
2023/12/20 07:13:36;;;;;;;23.80;15.13;;;;;;;;;;5038552;28;20573;-60
2023/12/20 07:16:04;;;;;;;24.80;15.43;;;;;;;;;;5038801;28;20477;-60
2023/12/20 07:18:32;;;;;;;23.07;15.50;;;;;;;;;;5038433;28;20492;-60
2023/12/20 07:21:00;;;;;;;21.20;14.00;;;;;;;;;;5038490;28;20446;-60
2023/12/20 07:23:29;;;;;;;19.63;12.97;;;;;;;;;;5038429;28;20468;-60
2023/12/20 07:25:57;;;;;;;21.03;13.23;;;;;;;;;;5038769;28;20447;-60
2023/12/20 07:28:26;;;;;;;20.63;13.60;;;;;;;;;;5038276;28;20272;-60
2023/12/20 07:31:00;;;;;;;20.73;13.40;;;;;;;;;;5031534;28;20537;-60
2023/12/20 07:33:29;;;;;;;19.63;13.10;;;;;;;;;;5037989;28;20545;-60
2023/12/20 07:36:07;;;;;;;18.13;12.87;;;;;;;;;;5037732;28;20921;-60
2023/12/20 07:38:37;;;;;;;21.40;13.53;;;;;;;;;;5032774;28;20431;-60
2023/12/20 07:41:06;;;;;;;16.37;12.70;;;;;;;;;;5033141;28;20612;-60
2023/12/20 07:43:36;;;;;;;20.57;13.60;;;;;;;;;;5037947;28;20466;-60
2023/12/20 07:46:07;;;;;;;19.10;13.33;;;;;;;;;;5038131;28;20211;-60
2023/12/20 07:48:36;;;;;;;22.70;14.17;;;;;;;;;;5037399;28;20476;-60
2023/12/20 07:51:05;;;;;;;23.60;15.63;;;;;;;;;;5035656;28;20929;-60
2023/12/20 07:53:38;;;;;;;20.37;14.13;;;;;;;;;;5038193;28;20227;-60
2023/12/20 07:56:17;;;;;;;19.50;12.50;;;;;;;;;;5037783;28;20209;-60
2023/12/20 07:58:49;;;;;;;19.17;12.47;;;;;;;;;;5037657;28;20199;-60
2023/12/20 08:01:24;;;;;;;20.83;14.10;;;;;;;;;;5037823;28;20450;-60
2023/12/20 08:03:52;;;;;;;23.47;14.10;;;;;;;;;;5038065;28;20224;-60
2023/12/20 08:06:23;;;;;;;19.60;13.37;;;;;;;;;;5037382;28;20474;-60
2023/12/20 08:08:51;;;;;;;19.97;13.30;;;;;;;;;;5037805;28;20199;-59
2023/12/20 08:11:29;;;;;;;18.13;13.33;;;;;;;;;;5037570;28;20214;-60
2023/12/20 08:13:59;;;;;;;23.43;14.40;;;;;;;;;;5037268;28;21108;-60
2023/12/20 08:16:27;;;;;;;23.77;14.73;;;;;;;;;;5037259;28;20442;-60
2023/12/20 08:18:55;;;;;;;22.83;14.67;;;;;;;;;;5037677;28;20434;-60
2023/12/20 08:21:24;;;;;;;19.60;13.10;;;;;;;;;;5035273;28;20488;-60
2023/12/20 08:24:10;;;;;;;26.30;14.00;;;;;;;;;;5033809;28;20474;-60
2023/12/20 08:26:41;;;;;;;21.93;13.07;;;;;;;;;;5036191;28;20204;-60
2023/12/20 08:29:13;;;;;;;16.00;10.57;;;;;;;;;;5036958;28;20551;-61
2023/12/20 08:31:42;;;;;;;17.27;10.43;;;;;;;;;;5037423;28;20207;-61
2023/12/20 08:34:14;;;;;;;14.40;9.60;;;;;;;;;;5037051;28;20772;-61
2023/12/20 08:36:42;;;;;;;11.77;9.07;;;;;;;;;;5036881;28;20290;-61
2023/12/20 08:39:11;;;;;;;12.20;7.93;;;;;;;;;;5037255;28;20231;-60
2023/12/20 08:41:39;;;;;;;12.13;8.90;;;;;;;;;;5036558;28;20286;-61
2023/12/20 08:44:07;;;;;;;11.50;7.13;;;;;;;;;;5036930;28;20227;-61
2023/12/20 08:46:39;;;;;;;13.07;8.33;;;;;;;;;;5037303;28;20210;-60
2023/12/20 08:49:09;;;;;;;14.13;8.53;;;;;;;;;;5040289;28;20195;-60
2023/12/20 08:51:40;;;;;;;10.57;7.13;;;;;;;;;;5037497;28;20203;-60
2023/12/20 08:54:10;;;;;;;15.30;8.23;;;;;;;;;;5035513;28;20223;-60
2023/12/20 08:56:39;;;;;;;9.07;7.37;;;;;;;;;;5037175;28;20204;-60
2023/12/20 08:59:09;;;;;;;11.27;6.97;;;;;;;;;;5032142;28;20211;-60
2023/12/20 09:01:40;;;;;;;16.47;7.90;;;;;;;;;;5036966;28;20213;-61
2023/12/20 09:04:09;;;;;;;9.77;7.10;;;;;;;;;;5037092;28;20234;-60
2023/12/20 09:06:37;;;;;;;12.60;7.03;;;;;;;;;;5028695;28;20270;-61
2023/12/20 09:09:08;;;;;;;10.83;7.07;;;;;;;;;;5035435;28;20203;-60
2023/12/20 09:11:37;;;;;;;10.83;7.70;;;;;;;;;;5037015;28;20203;-60
2023/12/20 09:14:05;;;;;;;11.97;8.20;;;;;;;;;;5035505;28;20231;-60
2023/12/20 09:16:33;;;;;;;12.87;7.53;;;;;;;;;;5035547;28;20208;-60
2023/12/20 09:19:03;;;;;;;10.83;7.90;;;;;;;;;;5036596;28;20261;-60
2023/12/20 09:21:31;;;;;;;12.93;7.67;;;;;;;;;;5036756;28;20327;-60
2023/12/20 09:23:59;;;;;;;11.27;7.57;;;;;;;;;;5036598;28;20230;-60
2023/12/20 09:26:27;;;;;;;7.80;7.00;;;;;;;;;;5036351;28;20326;-60
2023/12/20 09:28:56;;;;;;;11.17;7.30;;;;;;;;;;5035972;28;20199;-60
2023/12/20 09:31:24;;;;;;;10.30;7.83;;;;;;;;;;5036695;28;20238;-60
2023/12/20 09:33:52;;;;;;;11.57;7.53;;;;;;;;;;5039285;28;20290;-60
2023/12/20 09:36:22;;;;;;;10.03;7.73;;;;;;;;;;5040112;28;20219;-60
2023/12/20 09:38:51;;;;;;;11.50;7.80;;;;;;;;;;5040594;28;20230;-61
2023/12/20 09:41:19;;;;;;;11.30;6.73;;;;;;;;;;5040387;28;20203;-61
2023/12/20 09:43:49;;;;;;;9.50;7.43;;;;;;;;;;5040334;28;20227;-61
2023/12/20 09:46:21;;;;;;;9.53;6.67;;;;;;;;;;5039458;28;20212;-60
2023/12/20 09:48:50;;;;;;;10.70;7.33;;;;;;;;;;5033472;28;20254;-61
2023/12/20 09:51:18;;;;;;;11.33;7.23;;;;;;;;;;5042189;28;20208;-61
2023/12/20 09:53:48;;;;;;;10.00;6.40;;;;;;;;;;5041127;28;20234;-61
2023/12/20 09:56:17;;;;;;;11.20;7.00;;;;;;;;;;5040408;28;20271;-61
2023/12/20 09:58:45;;;;;;;11.27;6.87;;;;;;;;;;5036704;28;20564;-61
2023/12/20 10:01:13;;;;;;;11.87;7.63;;;;;;;;;;5036216;28;20200;-61
2023/12/20 10:03:42;;;;;;;11.60;7.13;;;;;;;;;;5039724;28;20319;-61
2023/12/20 10:06:11;;;;;;;8.67;6.43;;;;;;;;;;5038346;28;20235;-63
2023/12/20 10:08:40;;;;;;;9.90;6.47;;;;;;;;;;5040099;28;20738;-65
